createdAt,value
2022-08-17T00:02:27.551Z,100069.22
2022-08-17T00:05:00.709Z,100069.69
2022-08-17T00:07:35.400Z,100064.88
2022-08-17T00:10:06.897Z,100067.02
2022-08-17T00:12:44.666Z,100063.86
2022-08-17T00:15:22.107Z,100059.44
2022-08-17T00:17:58.801Z,100061.84
2022-08-17T00:20:35.678Z,100059.24
2022-08-17T00:23:13.456Z,100052.64
2022-08-17T00:25:52.075Z,100053.14
2022-08-17T00:28:29.126Z,100056.22
2022-08-17T00:31:07.774Z,100051.77
2022-08-17T00:33:46.927Z,100061.33
2022-08-17T00:36:18.784Z,100060.04
2022-08-17T00:38:51.485Z,100066.58
2022-08-17T00:41:25.471Z,100053.59
2022-08-17T00:44:01.385Z,100054.87
2022-08-17T00:46:34.198Z,100051.88
2022-08-17T00:49:10.541Z,100042.38
2022-08-17T00:51:45.577Z,100041.39
2022-08-17T00:54:18.683Z,100041.23
2022-08-17T00:56:53.758Z,100041.75
2022-08-17T00:59:25.252Z,100046.21
2022-08-17T01:02:01.191Z,100052.46
2022-08-17T01:04:32.529Z,100053.06
2022-08-17T01:07:05.867Z,100059.38
2022-08-17T01:09:37.161Z,100057.64
2022-08-17T01:12:13.457Z,100056.93
2022-08-17T01:14:53.519Z,100064.80
2022-08-17T01:17:25.217Z,100063.36
2022-08-17T01:20:00.297Z,100067.10
2022-08-17T01:22:32.418Z,100066.92
2022-08-17T01:25:05.288Z,100059.91
2022-08-17T01:27:38.861Z,100058.98
2022-08-17T01:30:58.198Z,100052.78
2022-08-17T01:33:15.237Z,100058.16
2022-08-17T01:35:53.235Z,100058.45
2022-08-17T01:38:31.693Z,100067.70
2022-08-17T01:41:05.880Z,100068.63
2022-08-17T01:43:44.071Z,100071.19
2022-08-17T01:46:18.589Z,100068.66
2022-08-17T01:48:52.619Z,100068.61
2022-08-17T01:51:26.167Z,100063.28
2022-08-17T01:54:01.379Z,100070.00
2022-08-17T01:56:35.447Z,100069.27
2022-08-17T01:59:13.473Z,100071.85
2022-08-17T02:01:48.338Z,100074.48
2022-08-17T02:04:20.459Z,100076.44
2022-08-17T02:06:56.715Z,100079.48
2022-08-17T02:09:36.922Z,100080.25
2022-08-17T02:12:38.154Z,100077.69
2022-08-17T02:15:06.298Z,100075.73
2022-08-17T02:17:42.716Z,100071.32
2022-08-17T02:20:13.765Z,100063.66
2022-08-17T02:22:47.389Z,100062.21
2022-08-17T02:25:23.186Z,100061.85
2022-08-17T02:27:55.317Z,100063.17
2022-08-17T02:30:59.933Z,100064.73
2022-08-17T02:33:23.150Z,100063.65
2022-08-17T02:36:15.665Z,100056.61
2022-08-17T02:38:50.944Z,100053.87
2022-08-17T02:41:27.912Z,100058.42
2022-08-17T02:44:00.917Z,100057.67
2022-08-17T02:46:39.225Z,100059.06
2022-08-17T02:49:16.996Z,100059.98
2022-08-17T02:51:51.989Z,100059.77
2022-08-17T02:54:41.042Z,100062.27
2022-08-17T02:57:13.029Z,100069.16
2022-08-17T02:59:49.079Z,100068.75
2022-08-17T03:02:25.403Z,100073.05
2022-08-17T03:05:07.160Z,100066.51
2022-08-17T03:07:46.568Z,100065.71
2022-08-17T03:10:19.781Z,100070.09
2022-08-17T03:12:53.606Z,100069.58
2022-08-17T03:15:26.387Z,100072.47
2022-08-17T03:17:57.592Z,100072.34
2022-08-17T03:20:42.397Z,100076.23
2022-08-17T03:23:19.106Z,100079.05
2022-08-17T03:26:15.228Z,100082.16
2022-08-17T03:28:52.707Z,100080.67
2022-08-17T03:31:26.383Z,100082.31
2022-08-17T03:33:58.873Z,100080.00
2022-08-17T03:36:37.760Z,100077.48
2022-08-17T03:39:12.723Z,100082.30
2022-08-17T03:41:46.156Z,100077.45
2022-08-17T03:44:25.493Z,100075.81
2022-08-17T03:47:16.549Z,100080.23
2022-08-17T03:50:06.796Z,100084.76
2022-08-17T03:53:00.919Z,100080.57
2022-08-17T03:55:54.307Z,100079.76
2022-08-17T03:58:28.557Z,100089.05
2022-08-17T04:01:02.957Z,100093.05
2022-08-17T04:03:33.961Z,100095.91
2022-08-17T04:06:11.710Z,100093.05
2022-08-17T04:08:52.752Z,100087.41
2022-08-17T04:11:27.855Z,100087.45
2022-08-17T04:14:05.980Z,100089.93
2022-08-17T04:16:36.884Z,100091.95
2022-08-17T04:19:11.277Z,100099.05
2022-08-17T04:21:45.762Z,100101.14
2022-08-17T04:24:21.731Z,100099.79
2022-08-17T04:26:56.405Z,100096.95
2022-08-17T04:29:54.116Z,100095.28
2022-08-17T04:33:03.903Z,100092.71
2022-08-17T04:35:23.438Z,100084.39
2022-08-17T04:37:59.268Z,100089.55
2022-08-17T04:40:54.862Z,100088.45
2022-08-17T04:43:32.273Z,100086.16
2022-08-17T04:46:07.392Z,100089.28
2022-08-17T04:48:41.603Z,100089.77
2022-08-17T04:51:18.347Z,100086.59
2022-08-17T04:53:54.346Z,100086.86
2022-08-17T04:56:31.508Z,100086.84
2022-08-17T04:59:04.238Z,100086.31
2022-08-17T05:01:44.266Z,100086.46
2022-08-17T05:04:34.090Z,100090.22
2022-08-17T05:07:21.133Z,100092.13
2022-08-17T05:09:58.079Z,100099.63
2022-08-17T05:12:34.091Z,100106.38
2022-08-17T05:15:11.154Z,100102.42
2022-08-17T05:17:48.237Z,100104.13
2022-08-17T05:20:19.462Z,100104.94
2022-08-17T05:22:57.773Z,100107.98
2022-08-17T05:25:32.810Z,100111.62
2022-08-17T05:28:11.025Z,100115.00
2022-08-17T05:30:42.359Z,100116.67
2022-08-17T05:33:20.388Z,100116.66
2022-08-17T05:35:52.263Z,100122.13
2022-08-17T05:38:29.679Z,100121.02
2022-08-17T05:41:06.735Z,100117.98
2022-08-17T05:43:41.381Z,100122.87
2022-08-17T05:46:20.676Z,100118.58
2022-08-17T05:48:56.002Z,100117.59
2022-08-17T05:51:34.720Z,100113.48
2022-08-17T05:54:14.461Z,100115.47
2022-08-17T05:56:54.461Z,100118.63
2022-08-17T05:59:29.298Z,100118.02
2022-08-17T06:02:07.164Z,100121.90
2022-08-17T06:04:45.425Z,100124.58
2022-08-17T06:07:22.344Z,100125.23
2022-08-17T06:10:00.620Z,100124.80
2022-08-17T06:12:40.188Z,100126.92
2022-08-17T06:15:19.640Z,100129.13
2022-08-17T06:17:53.805Z,100133.48
2022-08-17T06:20:28.987Z,100132.48
2022-08-17T06:23:05.229Z,100137.76
2022-08-17T06:25:36.565Z,100151.92
2022-08-17T06:28:13.898Z,100150.65
2022-08-17T06:30:59.467Z,100149.81
2022-08-17T06:33:35.424Z,100150.33
2022-08-17T06:36:18.202Z,100152.64
2022-08-17T06:38:51.709Z,100147.95
2022-08-17T06:41:36.499Z,100146.08
2022-08-17T06:44:11.721Z,100147.20
2022-08-17T06:47:12.853Z,100146.54
2022-08-17T06:49:47.853Z,100141.29
2022-08-17T06:52:45.557Z,100141.34
2022-08-17T06:55:22.458Z,100138.80
2022-08-17T06:58:00.715Z,100131.64
2022-08-17T07:00:40.968Z,100128.56
2022-08-17T07:03:17.176Z,100128.35
2022-08-17T07:05:52.024Z,100132.50
2022-08-17T07:08:34.888Z,100132.25
2022-08-17T07:11:11.193Z,100128.60
2022-08-17T07:13:51.579Z,100127.04
2022-08-17T07:16:24.033Z,100124.34
2022-08-17T07:18:57.551Z,100124.35
2022-08-17T07:21:33.281Z,100118.44
2022-08-17T07:24:11.037Z,100115.36
2022-08-17T07:27:09.558Z,100121.77
2022-08-17T07:29:56.774Z,100121.42
2022-08-17T07:32:32.827Z,100121.89
2022-08-17T07:35:13.116Z,100127.95
2022-08-17T07:37:55.868Z,100125.45
2022-08-17T07:40:33.581Z,100128.73
2022-08-17T07:43:22.310Z,100125.26
2022-08-17T07:46:23.769Z,100125.56
2022-08-17T07:48:55.988Z,100124.17
2022-08-17T07:51:36.652Z,100119.49
2022-08-17T07:54:32.096Z,100119.60
2022-08-17T07:57:06.579Z,100122.24
2022-08-17T07:59:43.209Z,100117.02
2022-08-17T08:02:31.813Z,100116.52
2022-08-17T08:05:10.123Z,100114.77
2022-08-17T08:07:45.169Z,100115.08
2022-08-17T08:10:29.550Z,100113.97
2022-08-17T08:13:14.182Z,100110.77
2022-08-17T08:15:53.902Z,100110.78
2022-08-17T08:18:54.690Z,100108.74
2022-08-17T08:21:28.529Z,100112.06
2022-08-17T08:24:04.236Z,100112.23
2022-08-17T08:26:39.164Z,100111.69
2022-08-17T08:29:15.407Z,100112.09
2022-08-17T08:31:57.819Z,100105.95
2022-08-17T08:34:58.894Z,100106.15
2022-08-17T08:37:35.615Z,100105.54
2022-08-17T08:40:13.438Z,100101.02
2022-08-17T08:42:47.557Z,100101.42
2022-08-17T08:45:25.745Z,100105.35
2022-08-17T08:48:05.980Z,100093.98
2022-08-17T08:51:00.091Z,100095.94
2022-08-17T08:53:42.680Z,100091.48
2022-08-17T08:56:14.157Z,100089.45
2022-08-17T08:58:49.584Z,100091.27
2022-08-17T09:01:23.100Z,100084.67
2022-08-17T09:04:25.129Z,100084.57
2022-08-17T09:07:08.991Z,100086.27
2022-08-17T09:09:47.992Z,100091.02
2022-08-17T09:12:22.698Z,100089.20
2022-08-17T09:14:59.702Z,100090.86
2022-08-17T09:17:33.834Z,100087.05
2022-08-17T09:20:11.520Z,100082.20
2022-08-17T09:23:08.785Z,100084.46
2022-08-17T09:25:50.083Z,100084.54
2022-08-17T09:28:28.038Z,100081.06
2022-08-17T09:31:04.403Z,100075.74
2022-08-17T09:33:41.320Z,100073.86
2022-08-17T09:36:15.950Z,100079.70
2022-08-17T09:38:51.963Z,100079.80
2022-08-17T09:41:27.442Z,100081.17
2022-08-17T09:44:01.957Z,100081.70
2022-08-17T09:46:39.080Z,100079.23
2022-08-17T09:49:15.103Z,100075.31
2022-08-17T09:51:51.599Z,100078.88
2022-08-17T09:54:42.524Z,100080.77
2022-08-17T09:57:32.683Z,100081.67
2022-08-17T10:00:12.129Z,100084.30
2022-08-17T10:02:50.812Z,100083.71
2022-08-17T10:05:25.587Z,100077.36
2022-08-17T10:08:00.353Z,100081.67
2022-08-17T10:10:33.120Z,100083.23
2022-08-17T10:13:09.707Z,100077.48
2022-08-17T10:15:50.423Z,100078.39
2022-08-17T10:18:31.916Z,100080.14
2022-08-17T10:21:24.313Z,100079.07
2022-08-17T10:24:16.592Z,100082.26
2022-08-17T10:26:56.215Z,100081.97
2022-08-17T10:29:46.199Z,100076.83
2022-08-17T10:32:35.317Z,100069.31
2022-08-17T10:35:19.348Z,100065.95
2022-08-17T10:37:59.417Z,100063.09
2022-08-17T10:40:38.999Z,100057.66
2022-08-17T10:43:18.687Z,100063.79
2022-08-17T10:46:30.357Z,100057.27
2022-08-17T10:48:44.710Z,100053.55
2022-08-17T10:51:36.580Z,100053.37
2022-08-17T10:54:14.733Z,100049.08
2022-08-17T10:56:51.599Z,100052.40
2022-08-17T10:59:59.088Z,100048.73
2022-08-17T11:02:37.803Z,100039.88
2022-08-17T11:05:23.459Z,100037.59
2022-08-17T11:08:01.830Z,100042.15
2022-08-17T11:10:42.428Z,100041.09
2022-08-17T11:13:19.001Z,100032.29
2022-08-17T11:15:59.425Z,100028.66
2022-08-17T11:18:46.998Z,100017.99
2022-08-17T11:21:37.849Z,100017.19
2022-08-17T11:24:19.505Z,100021.48
2022-08-17T11:27:04.785Z,100023.59
2022-08-17T11:29:39.116Z,100014.97
2022-08-17T11:32:13.971Z,100014.38
2022-08-17T11:35:00.841Z,100013.31
2022-08-17T11:37:41.978Z,100010.75
2022-08-17T11:40:27.834Z,100008.42
2022-08-17T11:43:07.943Z,100004.82
2022-08-17T11:45:55.712Z,100002.01
2022-08-17T11:48:46.433Z,99998.79
2022-08-17T11:51:41.623Z,100003.58
2022-08-17T11:54:32.146Z,99995.13
2022-08-17T11:57:24.069Z,99998.77
2022-08-17T11:59:59.050Z,99992.50
2022-08-17T12:02:47.899Z,99996.32
2022-08-17T12:05:37.096Z,99986.33
2022-08-17T12:08:20.276Z,99984.32
2022-08-17T12:11:02.702Z,99981.55
2022-08-17T12:13:39.969Z,99983.59
2022-08-17T12:16:14.018Z,99974.27
2022-08-17T12:18:54.646Z,99979.02
2022-08-17T12:21:31.381Z,99974.77
2022-08-17T12:24:04.801Z,99969.05
2022-08-17T12:26:41.015Z,99969.50
2022-08-17T12:29:35.813Z,99972.19
2022-08-17T12:32:17.868Z,99970.86
2022-08-17T12:34:53.179Z,99968.61
2022-08-17T12:37:29.902Z,99967.58
2022-08-17T12:40:05.794Z,99964.75
2022-08-17T12:42:41.826Z,99966.29
2022-08-17T12:45:24.134Z,99970.79
2022-08-17T12:48:07.816Z,99963.30
2022-08-17T12:50:41.118Z,99962.86
2022-08-17T12:53:16.061Z,99965.01
2022-08-17T12:55:49.023Z,99953.73
2022-08-17T12:58:25.385Z,99955.45
2022-08-17T13:01:01.182Z,99955.06
2022-08-17T13:03:36.505Z,99961.73
2022-08-17T13:06:10.285Z,99959.29
2022-08-17T13:08:43.290Z,99962.20
2022-08-17T13:11:23.449Z,99956.15
2022-08-17T13:13:57.302Z,99958.47
2022-08-17T13:16:29.680Z,99952.27
2022-08-17T13:19:16.655Z,99950.42
2022-08-17T13:21:50.623Z,99951.92
2022-08-17T13:24:26.606Z,99946.61
2022-08-17T13:27:08.296Z,99947.48
2022-08-17T13:29:51.628Z,99953.73
2022-08-17T13:32:36.030Z,99958.45
2022-08-17T13:35:29.540Z,99958.95
2022-08-17T13:38:09.716Z,99952.45
2022-08-17T13:40:43.249Z,99958.37
2022-08-17T13:43:25.571Z,99959.10
2022-08-17T13:45:57.593Z,99962.58
2022-08-17T13:48:31.823Z,99963.04
2022-08-17T13:51:08.039Z,99966.77
2022-08-17T13:53:55.572Z,99974.94
2022-08-17T13:56:45.268Z,99987.09
2022-08-17T13:59:52.714Z,99975.59
2022-08-17T14:02:20.371Z,99969.67
2022-08-17T14:04:53.834Z,99967.14
2022-08-17T14:07:30.910Z,99967.35
2022-08-17T14:10:02.701Z,99975.46
2022-08-17T14:12:36.223Z,99980.70
2022-08-17T14:15:15.127Z,99983.56
2022-08-17T14:17:50.660Z,99986.53
2022-08-17T14:20:24.795Z,99992.06
2022-08-17T14:23:04.436Z,99989.77
2022-08-17T14:25:42.073Z,99994.73
2022-08-17T14:28:15.312Z,99993.35
2022-08-17T14:30:57.633Z,99997.23
2022-08-17T14:33:31.275Z,99999.84
2022-08-17T14:36:02.463Z,100000.08
2022-08-17T14:38:38.006Z,100005.28
2022-08-17T14:41:21.864Z,100008.83
2022-08-17T14:44:01.070Z,100008.41
2022-08-17T14:46:35.153Z,100019.66
2022-08-17T14:49:09.350Z,100016.14
2022-08-17T14:51:45.619Z,100017.55
2022-08-17T14:54:33.168Z,100016.33
2022-08-17T14:57:22.978Z,100015.08
2022-08-17T15:00:03.131Z,100016.35
2022-08-17T15:02:36.729Z,100012.70
2022-08-17T15:05:09.984Z,100020.02
2022-08-17T15:07:46.095Z,100013.66
2022-08-17T15:10:17.350Z,100011.13
2022-08-17T15:12:50.178Z,100009.94
2022-08-17T15:15:24.595Z,100003.95
2022-08-17T15:17:55.897Z,100001.83
2022-08-17T15:20:32.714Z,100004.56
2022-08-17T15:23:09.913Z,100009.52
2022-08-17T15:25:43.881Z,100008.86
2022-08-17T15:28:15.585Z,100008.52
2022-08-17T15:30:48.596Z,100006.68
2022-08-17T15:33:23.154Z,100000.52
2022-08-17T15:35:58.098Z,100004.25
2022-08-17T15:38:36.998Z,100004.57
2022-08-17T15:41:10.740Z,100008.55
2022-08-17T15:43:44.670Z,100009.65
2022-08-17T15:46:17.481Z,100008.34
2022-08-17T15:48:58.345Z,100009.89
2022-08-17T15:51:37.011Z,100010.88
2022-08-17T15:54:22.909Z,100015.90
2022-08-17T15:56:54.410Z,100021.48
2022-08-17T15:59:25.155Z,100021.67
2022-08-17T16:03:01.316Z,100023.29
2022-08-17T16:04:59.228Z,100021.45
2022-08-17T16:07:31.861Z,100024.27
2022-08-17T16:10:04.914Z,100027.33
2022-08-17T16:12:36.881Z,100030.09
2022-08-17T16:15:12.234Z,100033.94
2022-08-17T16:17:43.135Z,100027.16
2022-08-17T16:20:21.191Z,100026.02
2022-08-17T16:22:55.455Z,100029.98
2022-08-17T16:25:38.405Z,100028.21
2022-08-17T16:28:20.366Z,100029.23
2022-08-17T16:30:55.003Z,100030.59
2022-08-17T16:33:30.201Z,100032.52
2022-08-17T16:36:09.753Z,100032.05
2022-08-17T16:38:44.871Z,100037.34
2022-08-17T16:41:36.250Z,100040.08
2022-08-17T16:44:10.857Z,100042.48
2022-08-17T16:46:56.797Z,100047.13
2022-08-17T16:49:37.118Z,100047.56
2022-08-17T16:52:11.368Z,100041.46
2022-08-17T16:54:47.017Z,100046.84
2022-08-17T16:57:21.227Z,100044.65
2022-08-17T16:59:53.445Z,100050.63
2022-08-17T17:02:32.241Z,100053.97
2022-08-17T17:05:07.602Z,100057.64
2022-08-17T17:07:58.084Z,100060.16
2022-08-17T17:10:41.189Z,100063.38
2022-08-17T17:13:13.994Z,100066.29
2022-08-17T17:15:52.943Z,100067.73
2022-08-17T17:18:27.764Z,100066.83
2022-08-17T17:21:14.789Z,100070.63
2022-08-17T17:23:51.524Z,100071.55
2022-08-17T17:26:39.157Z,100073.20
2022-08-17T17:29:16.526Z,100074.98
2022-08-17T17:31:51.374Z,100078.05
2022-08-17T17:34:25.850Z,100077.02
2022-08-17T17:37:02.659Z,100073.92
2022-08-17T17:39:38.681Z,100074.69
2022-08-17T17:42:20.335Z,100074.66
2022-08-17T17:45:03.649Z,100081.48
2022-08-17T17:47:37.255Z,100087.70
2022-08-17T17:50:18.677Z,100092.23
2022-08-17T17:53:00.210Z,100095.27
2022-08-17T17:55:36.723Z,100094.20
2022-08-17T17:58:21.889Z,100095.94
2022-08-17T18:01:05.486Z,100097.58
2022-08-17T18:03:39.902Z,100102.56
2022-08-17T18:06:21.504Z,100104.22
2022-08-17T18:08:59.531Z,100107.35
2022-08-17T18:11:52.536Z,100107.21
2022-08-17T18:14:27.597Z,100113.77
2022-08-17T18:17:08.075Z,100112.08
2022-08-17T18:19:41.646Z,100113.33
2022-08-17T18:22:14.805Z,100118.21
2022-08-17T18:24:46.262Z,100125.89
2022-08-17T18:27:35.032Z,100123.48
2022-08-17T18:30:23.617Z,100127.27
2022-08-17T18:32:55.962Z,100129.38
2022-08-17T18:35:33.049Z,100130.18
2022-08-17T18:38:25.637Z,100132.09
2022-08-17T18:41:05.359Z,100132.58
2022-08-17T18:43:53.839Z,100134.44
2022-08-17T18:46:35.213Z,100135.09
2022-08-17T18:49:11.228Z,100134.73
2022-08-17T18:51:56.241Z,100135.05
2022-08-17T18:54:27.285Z,100139.88
2022-08-17T18:57:00.271Z,100143.05
2022-08-17T18:59:36.098Z,100149.19
2022-08-17T19:02:36.123Z,100147.38
2022-08-17T19:05:14.101Z,100144.16
2022-08-17T19:07:48.274Z,100142.05
2022-08-17T19:10:23.555Z,100142.89
2022-08-17T19:13:00.442Z,100145.33
2022-08-17T19:15:37.837Z,100146.95
2022-08-17T19:18:15.738Z,100152.72
2022-08-17T19:20:48.324Z,100150.76
2022-08-17T19:23:22.756Z,100151.68
2022-08-17T19:25:58.782Z,100155.90
2022-08-17T19:28:34.116Z,100153.91
2022-08-17T19:31:08.073Z,100155.09
2022-08-17T19:33:38.981Z,100150.76
2022-08-17T19:36:22.496Z,100153.11
2022-08-17T19:39:06.811Z,100152.38
2022-08-17T19:41:43.186Z,100148.95
2022-08-17T19:44:27.145Z,100147.95
2022-08-17T19:47:06.023Z,100151.30
2022-08-17T19:49:40.853Z,100150.30
2022-08-17T19:52:18.303Z,100150.37
2022-08-17T19:55:03.248Z,100147.45
2022-08-17T19:57:45.663Z,100148.56
2022-08-17T20:00:20.018Z,100150.52
2022-08-17T20:03:06.451Z,100153.13
2022-08-17T20:06:08.481Z,100152.17
2022-08-17T20:08:35.663Z,100150.70
2022-08-17T20:11:10.843Z,100154.42
2022-08-17T20:13:44.925Z,100157.61
2022-08-17T20:16:20.307Z,100159.22
2022-08-17T20:18:56.226Z,100164.55
2022-08-17T20:21:38.391Z,100165.23
2022-08-17T20:24:16.249Z,100164.62
2022-08-17T20:26:55.366Z,100168.83
2022-08-17T20:29:40.190Z,100175.64
2022-08-17T20:32:23.097Z,100181.46
2022-08-17T20:35:07.491Z,100178.83
2022-08-17T20:37:43.332Z,100177.84
2022-08-17T20:40:21.706Z,100181.03
2022-08-17T20:42:53.602Z,100174.77
2022-08-17T20:45:43.192Z,100177.36
2022-08-17T20:48:36.458Z,100176.88
2022-08-17T20:51:21.825Z,100189.59
2022-08-17T20:54:26.919Z,100185.70
2022-08-17T20:57:00.632Z,100178.44
2022-08-17T20:59:51.180Z,100174.64
2022-08-17T21:02:27.028Z,100182.89
2022-08-17T21:05:15.724Z,100184.02
2022-08-17T21:07:55.988Z,100186.66
2022-08-17T21:10:44.150Z,100193.27
2022-08-17T21:13:37.973Z,100199.08
2022-08-17T21:16:16.010Z,100203.81
2022-08-17T21:18:48.475Z,100205.05
2022-08-17T21:21:24.123Z,100207.86
2022-08-17T21:24:19.649Z,100215.73
2022-08-17T21:26:54.912Z,100217.57
2022-08-17T21:29:31.086Z,100221.71
2022-08-17T21:32:19.096Z,100221.73
2022-08-17T21:35:17.707Z,100223.77
2022-08-17T21:37:50.570Z,100223.41
2022-08-17T21:40:24.161Z,100227.60
2022-08-17T21:42:57.764Z,100226.87
2022-08-17T21:45:35.246Z,100224.47
2022-08-17T21:48:15.628Z,100223.05
2022-08-17T21:50:49.605Z,100232.81
2022-08-17T21:53:33.180Z,100226.40
2022-08-17T21:56:08.654Z,100229.73
2022-08-17T21:58:48.410Z,100229.88
2022-08-17T22:01:27.276Z,100228.80
2022-08-17T22:04:00.201Z,100227.55
2022-08-17T22:06:32.135Z,100234.05
2022-08-17T22:09:05.236Z,100237.91
2022-08-17T22:11:52.870Z,100237.67
2022-08-17T22:14:53.004Z,100232.36
2022-08-17T22:17:24.011Z,100227.37
2022-08-17T22:19:58.372Z,100223.84
2022-08-17T22:22:37.710Z,100222.61
2022-08-17T22:25:10.999Z,100219.10
2022-08-17T22:27:50.274Z,100214.75
2022-08-17T22:30:24.017Z,100212.98
2022-08-17T22:32:55.993Z,100220.21
2022-08-17T22:35:33.232Z,100224.42
2022-08-17T22:38:23.233Z,100226.48
2022-08-17T22:40:54.666Z,100222.30
2022-08-17T22:43:27.473Z,100224.90
2022-08-17T22:45:59.354Z,100220.36
2022-08-17T22:48:31.419Z,100215.32
2022-08-17T22:51:12.434Z,100216.63
2022-08-17T22:54:08.235Z,100215.48
2022-08-17T22:56:59.773Z,100212.17
2022-08-17T22:59:41.971Z,100211.90
2022-08-17T23:02:28.156Z,100208.95
2022-08-17T23:05:19.167Z,100209.19
2022-08-17T23:07:54.856Z,100214.21
2022-08-17T23:10:25.666Z,100216.35
2022-08-17T23:13:01.617Z,100215.17
2022-08-17T23:15:34.712Z,100223.02
2022-08-17T23:18:13.209Z,100227.92
2022-08-17T23:20:44.244Z,100230.28
2022-08-17T23:23:23.690Z,100228.23
2022-08-17T23:25:56.955Z,100219.89
2022-08-17T23:28:31.344Z,100217.27
2022-08-17T23:31:07.540Z,100219.52
2022-08-17T23:33:41.975Z,100221.61
2022-08-17T23:36:20.126Z,100218.92
2022-08-17T23:38:51.075Z,100223.45
2022-08-17T23:41:22.272Z,100221.30
2022-08-17T23:43:55.258Z,100224.85
2022-08-17T23:46:34.691Z,100221.95
2022-08-17T23:49:17.075Z,100225.51
2022-08-17T23:51:56.785Z,100224.44
2022-08-17T23:54:30.356Z,100223.27
2022-08-17T23:57:07.592Z,100214.74
2022-08-17T23:59:44.099Z,100220.70
